Strona główna
METAR-TAF:

METAR-TAF

Lotnisko :

Port lotniczy Derry

Londonderry, Irlandia Północna

Szerokość geograficzna: 55-03N, Długość geograficzna: 007-09W, wysokość: 9 m

Aktualna obserwacja pogody

Raport powstał 6 godziny i 3 minut temu, godzina 17:50 UTC
Wiatr 8 kt od południowy zachód
Temperatura 8°C
Wilgotność 81%
Ciśnienie 1020 hPa
Widzialność 10 km lub więcej
Zachmurzenie całkowite na wysokości 3800 ft

METAR: EGAE 261750Z 22008KT 9999 OVC038 08/05 Q1020

czas: 23:53 (23:53 UTC)

Prognoza

Raport powstał 9 godziny i 48 minut temu, godzina 14:05 UTC
Prognoza ważna od 26 godzina 15 UTC do 26 godzina 19 UTC
Wiatr 10 kt od południowy zachód
Widzialność 10 km lub więcej
Mało chmury na wysokości 1500 ft
Przerywane chmury na wysokości 3500 ft

TAF: EGAE 261405Z 2615/2619 22010KT 9999 FEW015 BKN035

Obserwacja i prognoza pogody dla ponad 4000 lotnisk (raport METAR i TAF).

Dostępne stacje oznaczono żółtymi i czerwonymi punktami na mapie.

Najedź kursorem aby zobaczyć nazwę stacji.

Kliknij aby zobaczyć obserwacje i prognozy pogody.

Aby zmienić mapę: kliknij na zielony przycisk z czarnym krzyżykiem, aby powiększyć; na zielony przycisk z myślnikiem, aby pomniejszyć; na zielone strzałki, aby przejść do map sąsiednich.


METAR-TAF: